sensor_id;sensor_type;location;lat;lon;timestamp;pressure;altitude;pressure_sealevel;temperature;humidity
46430;BME280;32131;53.454;-6.180;2023-03-24T00:02:00;98550.28;;;5.92;83.21
46430;BME280;32131;53.454;-6.180;2023-03-24T00:04:28;98553.69;;;5.94;82.91
46430;BME280;32131;53.454;-6.180;2023-03-24T00:06:56;98565.66;;;5.95;83.13
46430;BME280;32131;53.454;-6.180;2023-03-24T00:09:27;98569.09;;;5.91;83.37
46430;BME280;32131;53.454;-6.180;2023-03-24T00:11:57;98563.09;;;5.95;83.23
46430;BME280;32131;53.454;-6.180;2023-03-24T00:14:25;98557.97;;;5.95;83.22
46430;BME280;32131;53.454;-6.180;2023-03-24T00:16:56;98587.00;;;5.94;83.79
46430;BME280;32131;53.454;-6.180;2023-03-24T00:19:25;98588.72;;;5.97;83.59
46430;BME280;32131;53.454;-6.180;2023-03-24T00:21:53;98588.75;;;6.05;82.98
46430;BME280;32131;53.454;-6.180;2023-03-24T00:24:23;98599.00;;;6.09;82.45
46430;BME280;32131;53.454;-6.180;2023-03-24T00:26:51;98615.22;;;6.10;82.67
46430;BME280;32131;53.454;-6.180;2023-03-24T00:29:24;98599.00;;;6.09;82.53
46430;BME280;32131;53.454;-6.180;2023-03-24T00:31:52;98607.53;;;6.10;82.58
46430;BME280;32131;53.454;-6.180;2023-03-24T00:34:21;98596.41;;;6.11;82.37
46430;BME280;32131;53.454;-6.180;2023-03-24T00:36:50;98593.03;;;6.15;82.17
46430;BME280;32131;53.454;-6.180;2023-03-24T00:39:18;98592.16;;;6.16;82.15
46430;BME280;32131;53.454;-6.180;2023-03-24T00:41:47;98580.19;;;6.17;82.20
46430;BME280;32131;53.454;-6.180;2023-03-24T00:44:16;98588.72;;;6.17;81.99
46430;BME280;32131;53.454;-6.180;2023-03-24T00:46:47;98591.31;;;6.14;82.19
46430;BME280;32131;53.454;-6.180;2023-03-24T00:49:21;98582.75;;;6.12;82.26
46430;BME280;32131;53.454;-6.180;2023-03-24T00:52:08;98578.50;;;6.11;82.42
46430;BME280;32131;53.454;-6.180;2023-03-24T00:54:38;98595.59;;;6.10;82.14
46430;BME280;32131;53.454;-6.180;2023-03-24T00:57:07;98581.91;;;6.08;81.97
46430;BME280;32131;53.454;-6.180;2023-03-24T00:59:40;98600.69;;;6.09;82.16
46430;BME280;32131;53.454;-6.180;2023-03-24T01:02:16;98601.56;;;6.08;82.13
46430;BME280;32131;53.454;-6.180;2023-03-24T01:04:51;98603.25;;;6.07;82.35
46430;BME280;32131;53.454;-6.180;2023-03-24T01:07:19;98598.13;;;6.09;82.48
46430;BME280;32131;53.454;-6.180;2023-03-24T01:09:50;98604.97;;;6.10;82.59
46430;BME280;32131;53.454;-6.180;2023-03-24T01:12:23;98614.34;;;6.11;82.87
46430;BME280;32131;53.454;-6.180;2023-03-24T01:14:51;98622.03;;;6.11;82.87
46430;BME280;32131;53.454;-6.180;2023-03-24T01:17:21;98619.50;;;6.12;83.01
46430;BME280;32131;53.454;-6.180;2023-03-24T01:19:51;98621.19;;;6.17;82.58
46430;BME280;32131;53.454;-6.180;2023-03-24T01:22:19;98620.34;;;6.18;82.78
46430;BME280;32131;53.454;-6.180;2023-03-24T01:24:48;98616.91;;;6.17;82.80
46430;BME280;32131;53.454;-6.180;2023-03-24T01:27:16;98617.78;;;6.13;83.23
46430;BME280;32131;53.454;-6.180;2023-03-24T01:29:44;98618.63;;;6.12;83.35
46430;BME280;32131;53.454;-6.180;2023-03-24T01:32:13;98622.06;;;6.12;83.50
46430;BME280;32131;53.454;-6.180;2023-03-24T01:34:42;98621.22;;;6.10;83.69
46430;BME280;32131;53.454;-6.180;2023-03-24T01:37:10;98617.78;;;6.14;83.56
46430;BME280;32131;53.454;-6.180;2023-03-24T01:39:38;98622.03;;;6.17;83.68
46430;BME280;32131;53.454;-6.180;2023-03-24T01:42:10;98619.47;;;6.22;83.82
46430;BME280;32131;53.454;-6.180;2023-03-24T01:44:45;98622.88;;;6.25;83.80
46430;BME280;32131;53.454;-6.180;2023-03-24T01:47:15;98610.94;;;6.26;83.90
46430;BME280;32131;53.454;-6.180;2023-03-24T01:49:51;98631.44;;;6.29;83.89
46430;BME280;32131;53.454;-6.180;2023-03-24T01:52:23;98631.44;;;6.37;83.59
46430;BME280;32131;53.454;-6.180;2023-03-24T01:54:54;98634.84;;;6.43;83.10
46430;BME280;32131;53.454;-6.180;2023-03-24T01:57:26;98627.16;;;6.48;83.03
46430;BME280;32131;53.454;-6.180;2023-03-24T01:59:59;98617.75;;;6.52;82.61
46430;BME280;32131;53.454;-6.180;2023-03-24T02:02:30;98632.25;;;6.62;82.18
46430;BME280;32131;53.454;-6.180;2023-03-24T02:05:02;98623.69;;;6.69;81.99
46430;BME280;32131;53.454;-6.180;2023-03-24T02:07:33;98616.81;;;6.78;81.27
46430;BME280;32131;53.454;-6.180;2023-03-24T02:10:05;98622.78;;;6.81;81.09
46430;BME280;32131;53.454;-6.180;2023-03-24T02:12:34;98617.63;;;6.84;80.95
46430;BME280;32131;53.454;-6.180;2023-03-24T02:15:04;98612.50;;;6.89;80.97
46430;BME280;32131;53.454;-6.180;2023-03-24T02:17:46;98612.50;;;6.92;80.74
46430;BME280;32131;53.454;-6.180;2023-03-24T02:23:50;98614.16;;;6.99;80.49
46430;BME280;32131;53.454;-6.180;2023-03-24T02:26:54;98623.59;;;6.99;80.32
46430;BME280;32131;53.454;-6.180;2023-03-24T02:32:43;98626.16;;;6.94;80.64
46430;BME280;32131;53.454;-6.180;2023-03-24T02:38:41;98621.91;;;6.85;81.64
46430;BME280;32131;53.454;-6.180;2023-03-24T02:41:19;98629.63;;;6.82;82.01
46430;BME280;32131;53.454;-6.180;2023-03-24T02:43:53;98629.66;;;6.78;82.43
46430;BME280;32131;53.454;-6.180;2023-03-24T02:46:28;98633.91;;;6.72;82.64
46430;BME280;32131;53.454;-6.180;2023-03-24T02:49:09;98633.94;;;6.68;82.88
46430;BME280;32131;53.454;-6.180;2023-03-24T02:51:44;98636.53;;;6.63;83.15
46430;BME280;32131;53.454;-6.180;2023-03-24T02:54:18;98624.53;;;6.60;83.47
46430;BME280;32131;53.454;-6.180;2023-03-24T02:56:54;98632.25;;;6.57;83.50
46430;BME280;32131;53.454;-6.180;2023-03-24T02:59:29;98632.25;;;6.57;83.58
46430;BME280;32131;53.454;-6.180;2023-03-24T03:02:02;98619.41;;;6.56;83.45
46430;BME280;32131;53.454;-6.180;2023-03-24T03:04:38;98628.84;;;6.55;83.56
46430;BME280;32131;53.454;-6.180;2023-03-24T03:07:08;98624.56;;;6.56;83.74
46430;BME280;32131;53.454;-6.180;2023-03-24T03:09:42;98622.88;;;6.56;83.72
46430;BME280;32131;53.454;-6.180;2023-03-24T03:12:17;98635.69;;;6.53;83.63
46430;BME280;32131;53.454;-6.180;2023-03-24T03:14:48;98636.53;;;6.52;83.70
46430;BME280;32131;53.454;-6.180;2023-03-24T03:17:20;98636.53;;;6.48;83.79
46430;BME280;32131;53.454;-6.180;2023-03-24T03:19:53;98639.97;;;6.43;84.03
46430;BME280;32131;53.454;-6.180;2023-03-24T03:22:25;98642.56;;;6.42;83.88
46430;BME280;32131;53.454;-6.180;2023-03-24T03:24:56;98637.41;;;6.39;84.10
46430;BME280;32131;53.454;-6.180;2023-03-24T03:27:29;98646.78;;;6.43;83.91
46430;BME280;32131;53.454;-6.180;2023-03-24T03:30:07;98651.06;;;6.44;83.82
46430;BME280;32131;53.454;-6.180;2023-03-24T03:32:42;98647.66;;;6.45;83.76
46430;BME280;32131;53.454;-6.180;2023-03-24T03:35:14;98645.94;;;6.42;83.87
46430;BME280;32131;53.454;-6.180;2023-03-24T03:37:50;98647.66;;;6.40;84.03
46430;BME280;32131;53.454;-6.180;2023-03-24T03:40:23;98648.50;;;6.39;83.94
46430;BME280;32131;53.454;-6.180;2023-03-24T03:42:53;98652.78;;;6.45;83.82
46430;BME280;32131;53.454;-6.180;2023-03-24T03:45:21;98651.06;;;6.49;83.67
46430;BME280;32131;53.454;-6.180;2023-03-24T03:47:50;98651.06;;;6.49;83.49
46430;BME280;32131;53.454;-6.180;2023-03-24T03:50:18;98651.91;;;6.48;83.58
46430;BME280;32131;53.454;-6.180;2023-03-24T03:52:47;98658.75;;;6.49;83.35
46430;BME280;32131;53.454;-6.180;2023-03-24T03:55:17;98651.94;;;6.49;83.39
46430;BME280;32131;53.454;-6.180;2023-03-24T03:57:46;98654.50;;;6.49;83.17
46430;BME280;32131;53.454;-6.180;2023-03-24T04:00:17;98656.22;;;6.50;83.28
46430;BME280;32131;53.454;-6.180;2023-03-24T04:03:04;98659.59;;;6.57;82.96
46430;BME280;32131;53.454;-6.180;2023-03-24T04:05:39;98660.47;;;6.62;82.66
46430;BME280;32131;53.454;-6.180;2023-03-24T04:08:23;98657.03;;;6.61;82.57
46430;BME280;32131;53.454;-6.180;2023-03-24T04:11:29;98653.63;;;6.58;82.73
46430;BME280;32131;53.454;-6.180;2023-03-24T04:14:18;98658.75;;;6.61;82.74
46430;BME280;32131;53.454;-6.180;2023-03-24T04:17:00;98651.06;;;6.66;82.49
46430;BME280;32131;53.454;-6.180;2023-03-24T04:19:45;98657.03;;;6.69;82.59
46430;BME280;32131;53.454;-6.180;2023-03-24T04:22:25;98644.19;;;6.71;82.40
46430;BME280;32131;53.454;-6.180;2023-03-24T04:24:58;98656.16;;;6.75;82.43
46430;BME280;32131;53.454;-6.180;2023-03-24T04:27:37;98654.44;;;6.77;82.28
46430;BME280;32131;53.454;-6.180;2023-03-24T04:30:11;98655.28;;;6.84;82.04
46430;BME280;32131;53.454;-6.180;2023-03-24T04:32:47;98648.41;;;6.90;81.93
46430;BME280;32131;53.454;-6.180;2023-03-24T04:35:20;98650.09;;;6.95;81.75
46430;BME280;32131;53.454;-6.180;2023-03-24T04:38:00;98639.84;;;6.96;81.46
46430;BME280;32131;53.454;-6.180;2023-03-24T04:40:33;98658.66;;;6.98;81.37
46430;BME280;32131;53.454;-6.180;2023-03-24T04:43:04;98651.81;;;7.00;81.14
46430;BME280;32131;53.454;-6.180;2023-03-24T04:45:34;98654.34;;;7.02;80.91
46430;BME280;32131;53.454;-6.180;2023-03-24T04:48:05;98652.69;;;7.01;81.02
46430;BME280;32131;53.454;-6.180;2023-03-24T04:50:38;98652.69;;;6.96;81.22
46430;BME280;32131;53.454;-6.180;2023-03-24T04:53:06;98650.09;;;6.98;80.99
46430;BME280;32131;53.454;-6.180;2023-03-24T04:56:03;98659.50;;;6.97;80.74
46430;BME280;32131;53.454;-6.180;2023-03-24T04:58:33;98654.38;;;6.96;80.88
46430;BME280;32131;53.454;-6.180;2023-03-24T05:01:02;98661.22;;;6.97;80.93
46430;BME280;32131;53.454;-6.180;2023-03-24T05:03:33;98662.94;;;7.01;80.81
46430;BME280;32131;53.454;-6.180;2023-03-24T05:06:04;98658.66;;;6.97;80.79
46430;BME280;32131;53.454;-6.180;2023-03-24T05:08:33;98662.09;;;6.91;80.97
46430;BME280;32131;53.454;-6.180;2023-03-24T05:11:01;98666.38;;;6.92;81.07
46430;BME280;32131;53.454;-6.180;2023-03-24T05:13:29;98668.09;;;6.93;81.25
46430;BME280;32131;53.454;-6.180;2023-03-24T05:15:57;98662.09;;;6.94;81.30
46430;BME280;32131;53.454;-6.180;2023-03-24T05:18:25;98663.78;;;6.93;81.22
46430;BME280;32131;53.454;-6.180;2023-03-24T05:20:54;98669.78;;;6.86;81.56
46430;BME280;32131;53.454;-6.180;2023-03-24T05:23:23;98672.41;;;6.83;81.88
46430;BME280;32131;53.454;-6.180;2023-03-24T05:25:52;98669.84;;;6.79;82.32
46430;BME280;32131;53.454;-6.180;2023-03-24T05:28:20;98666.41;;;6.78;82.65
46430;BME280;32131;53.454;-6.180;2023-03-24T05:30:48;98674.13;;;6.75;82.99
46430;BME280;32131;53.454;-6.180;2023-03-24T05:33:16;98672.41;;;6.75;83.10
46430;BME280;32131;53.454;-6.180;2023-03-24T05:35:44;98674.97;;;6.79;82.84
46430;BME280;32131;53.454;-6.180;2023-03-24T05:38:14;98669.81;;;6.80;83.18
46430;BME280;32131;53.454;-6.180;2023-03-24T05:40:42;98675.78;;;6.84;83.04
46430;BME280;32131;53.454;-6.180;2023-03-24T05:43:10;98681.78;;;6.83;83.09
46430;BME280;32131;53.454;-6.180;2023-03-24T05:45:38;98681.78;;;6.81;83.40
46430;BME280;32131;53.454;-6.180;2023-03-24T05:48:07;98683.47;;;6.85;83.43
46430;BME280;32131;53.454;-6.180;2023-03-24T05:50:35;98676.63;;;6.84;83.57
46430;BME280;32131;53.454;-6.180;2023-03-24T05:53:03;98675.78;;;6.84;83.39
46430;BME280;32131;53.454;-6.180;2023-03-24T05:55:32;98669.81;;;6.85;83.53
46430;BME280;32131;53.454;-6.180;2023-03-24T05:58:00;98663.81;;;6.83;83.89
46430;BME280;32131;53.454;-6.180;2023-03-24T06:00:29;98674.97;;;6.83;83.75
46430;BME280;32131;53.454;-6.180;2023-03-24T06:02:58;98664.69;;;6.80;84.00
46430;BME280;32131;53.454;-6.180;2023-03-24T06:05:26;98672.38;;;6.82;84.16
46430;BME280;32131;53.454;-6.180;2023-03-24T06:07:54;98673.25;;;6.82;84.24
46430;BME280;32131;53.454;-6.180;2023-03-24T06:10:24;98668.97;;;6.81;84.33
46430;BME280;32131;53.454;-6.180;2023-03-24T06:12:55;98675.78;;;6.81;84.52
46430;BME280;32131;53.454;-6.180;2023-03-24T06:15:23;98674.06;;;6.84;84.60
46430;BME280;32131;53.454;-6.180;2023-03-24T06:17:53;98673.22;;;6.85;84.45
46430;BME280;32131;53.454;-6.180;2023-03-24T06:20:21;98669.81;;;6.83;84.68
46430;BME280;32131;53.454;-6.180;2023-03-24T06:22:49;98665.53;;;6.84;84.68
46430;BME280;32131;53.454;-6.180;2023-03-24T06:25:17;98666.38;;;6.84;84.79
46430;BME280;32131;53.454;-6.180;2023-03-24T06:27:47;98663.78;;;6.89;84.48
46430;BME280;32131;53.454;-6.180;2023-03-24T06:30:17;98664.66;;;6.96;83.89
46430;BME280;32131;53.454;-6.180;2023-03-24T06:32:45;98668.91;;;7.01;83.76
46430;BME280;32131;53.454;-6.180;2023-03-24T06:35:14;98674.88;;;7.05;83.29
46430;BME280;32131;53.454;-6.180;2023-03-24T06:37:43;98670.59;;;7.05;83.12
46430;BME280;32131;53.454;-6.180;2023-03-24T06:40:12;98668.03;;;7.05;83.40
46430;BME280;32131;53.454;-6.180;2023-03-24T06:42:43;98662.06;;;7.03;83.48
46430;BME280;32131;53.454;-6.180;2023-03-24T06:45:11;98668.03;;;7.07;83.29
46430;BME280;32131;53.454;-6.180;2023-03-24T06:47:41;98673.16;;;7.13;83.11
46430;BME280;32131;53.454;-6.180;2023-03-24T06:50:09;98674.00;;;7.20;82.47
46430;BME280;32131;53.454;-6.180;2023-03-24T06:52:37;98673.97;;;7.24;82.50
46430;BME280;32131;53.454;-6.180;2023-03-24T06:55:07;98678.25;;;7.26;82.37
46430;BME280;32131;53.454;-6.180;2023-03-24T06:57:35;98677.34;;;7.27;82.24
46430;BME280;32131;53.454;-6.180;2023-03-24T07:00:04;98668.81;;;7.28;82.27
46430;BME280;32131;53.454;-6.180;2023-03-24T07:02:34;98685.06;;;7.28;82.14
46430;BME280;32131;53.454;-6.180;2023-03-24T07:05:05;98689.34;;;7.29;82.04
46430;BME280;32131;53.454;-6.180;2023-03-24T07:07:35;98688.47;;;7.29;81.85
46430;BME280;32131;53.454;-6.180;2023-03-24T07:10:23;98692.75;;;7.30;82.03
46430;BME280;32131;53.454;-6.180;2023-03-24T07:12:51;98691.91;;;7.31;82.01
46430;BME280;32131;53.454;-6.180;2023-03-24T07:15:19;98696.16;;;7.35;81.96
46430;BME280;32131;53.454;-6.180;2023-03-24T07:17:48;98700.44;;;7.39;82.27
46430;BME280;32131;53.454;-6.180;2023-03-24T07:20:18;98681.56;;;7.49;82.16
46430;BME280;32131;53.454;-6.180;2023-03-24T07:22:46;98689.19;;;7.60;82.10
46430;BME280;32131;53.454;-6.180;2023-03-24T07:25:16;98685.72;;;7.72;81.97
46430;BME280;32131;53.454;-6.180;2023-03-24T07:27:47;98681.38;;;7.80;81.89
46430;BME280;32131;53.454;-6.180;2023-03-24T07:30:15;98685.69;;;7.80;82.07
46430;BME280;32131;53.454;-6.180;2023-03-24T07:32:50;98681.38;;;7.77;82.09
46430;BME280;32131;53.454;-6.180;2023-03-24T07:35:21;98693.38;;;7.84;82.16
46430;BME280;32131;53.454;-6.180;2023-03-24T07:37:50;98691.53;;;7.99;81.42
46430;BME280;32131;53.454;-6.180;2023-03-24T07:40:18;98683.75;;;8.07;80.67
46430;BME280;32131;53.454;-6.180;2023-03-24T07:42:46;98694.84;;;8.15;80.24
46430;BME280;32131;53.454;-6.180;2023-03-24T07:45:14;98689.66;;;8.23;79.85
46430;BME280;32131;53.454;-6.180;2023-03-24T07:47:43;98699.88;;;8.29;79.57
46430;BME280;32131;53.454;-6.180;2023-03-24T07:50:13;98701.69;;;8.17;79.53
46430;BME280;32131;53.454;-6.180;2023-03-24T07:52:46;98694.03;;;8.07;79.93
46430;BME280;32131;53.454;-6.180;2023-03-24T07:55:15;98703.50;;;8.05;80.26
46430;BME280;32131;53.454;-6.180;2023-03-24T07:57:47;98700.91;;;8.06;80.08
46430;BME280;32131;53.454;-6.180;2023-03-24T08:00:16;98706.06;;;8.09;79.87
46430;BME280;32131;53.454;-6.180;2023-03-24T08:02:46;98704.28;;;8.14;79.27
46430;BME280;32131;53.454;-6.180;2023-03-24T08:05:15;98703.38;;;8.18;79.25
46430;BME280;32131;53.454;-6.180;2023-03-24T08:07:49;98705.88;;;8.28;78.70
46430;BME280;32131;53.454;-6.180;2023-03-24T08:10:21;98718.72;;;8.34;78.54
46430;BME280;32131;53.454;-6.180;2023-03-24T08:12:49;98710.88;;;8.46;78.19
46430;BME280;32131;53.454;-6.180;2023-03-24T08:15:18;98707.38;;;8.58;77.61
46430;BME280;32131;53.454;-6.180;2023-03-24T08:17:47;98716.72;;;8.72;77.03
46430;BME280;32131;53.454;-6.180;2023-03-24T08:20:18;98710.63;;;8.77;76.61
46430;BME280;32131;53.454;-6.180;2023-03-24T08:22:48;98705.44;;;8.82;76.59
46430;BME280;32131;53.454;-6.180;2023-03-24T08:25:21;98702.03;;;8.85;75.98
46430;BME280;32131;53.454;-6.180;2023-03-24T08:27:52;98695.97;;;8.86;75.69
46430;BME280;32131;53.454;-6.180;2023-03-24T08:30:20;98700.25;;;8.87;75.25
46430;BME280;32131;53.454;-6.180;2023-03-24T08:32:50;98706.25;;;8.89;75.17
46430;BME280;32131;53.454;-6.180;2023-03-24T08:35:21;98710.50;;;8.93;75.59
46430;BME280;32131;53.454;-6.180;2023-03-24T08:37:51;98702.66;;;9.05;75.19
46430;BME280;32131;53.454;-6.180;2023-03-24T08:40:21;98703.28;;;9.26;74.26
46430;BME280;32131;53.454;-6.180;2023-03-24T08:42:50;98704.84;;;9.39;73.58
46430;BME280;32131;53.454;-6.180;2023-03-24T08:45:21;98721.06;;;9.44;73.16
46430;BME280;32131;53.454;-6.180;2023-03-24T08:47:50;98712.91;;;9.79;72.61
46430;BME280;32131;53.454;-6.180;2023-03-24T08:50:20;98713.53;;;9.96;71.58
46430;BME280;32131;53.454;-6.180;2023-03-24T08:52:55;98723.44;;;10.24;70.60
46430;BME280;32131;53.454;-6.180;2023-03-24T08:55:24;98705.25;;;10.33;70.01
46430;BME280;32131;53.454;-6.180;2023-03-24T08:57:52;98719.13;;;10.26;69.62
46430;BME280;32131;53.454;-6.180;2023-03-24T09:00:22;98718.25;;;10.27;69.50
46430;BME280;32131;53.454;-6.180;2023-03-24T09:02:52;98715.56;;;10.33;69.73
46430;BME280;32131;53.454;-6.180;2023-03-24T09:05:23;98714.56;;;10.44;69.56
46430;BME280;32131;53.454;-6.180;2023-03-24T09:08:11;98716.16;;;10.51;68.94
46430;BME280;32131;53.454;-6.180;2023-03-24T09:10:39;98707.44;;;10.58;68.87
46430;BME280;32131;53.454;-6.180;2023-03-24T09:13:08;98712.78;;;10.97;68.10
46430;BME280;32131;53.454;-6.180;2023-03-24T09:15:36;98722.00;;;11.11;66.40
46430;BME280;32131;53.454;-6.180;2023-03-24T09:18:05;98714.25;;;11.11;65.85
46430;BME280;32131;53.454;-6.180;2023-03-24T09:20:33;98709.09;;;11.09;65.77
46430;BME280;32131;53.454;-6.180;2023-03-24T09:23:02;98704.44;;;11.28;65.19
46430;BME280;32131;53.454;-6.180;2023-03-24T09:25:33;98713.78;;;11.36;64.59
46430;BME280;32131;53.454;-6.180;2023-03-24T09:28:01;98697.31;;;11.40;63.60
46430;BME280;32131;53.454;-6.180;2023-03-24T09:30:29;98702.34;;;11.46;63.60
46430;BME280;32131;53.454;-6.180;2023-03-24T09:33:00;98704.25;;;11.38;63.83
46430;BME280;32131;53.454;-6.180;2023-03-24T09:35:29;98692.22;;;11.37;64.27
46430;BME280;32131;53.454;-6.180;2023-03-24T09:37:57;98694.41;;;11.57;63.17
46430;BME280;32131;53.454;-6.180;2023-03-24T09:40:27;98705.44;;;11.63;62.48
46430;BME280;32131;53.454;-6.180;2023-03-24T09:43:01;98693.66;;;11.91;62.50
46430;BME280;32131;53.454;-6.180;2023-03-24T09:45:33;98691.66;;;12.40;62.09
46430;BME280;32131;53.454;-6.180;2023-03-24T09:48:05;98691.50;;;12.81;60.29
46430;BME280;32131;53.454;-6.180;2023-03-24T09:50:40;98685.69;;;12.72;60.12
46430;BME280;32131;53.454;-6.180;2023-03-24T09:53:27;98665.97;;;12.67;59.19
46430;BME280;32131;53.454;-6.180;2023-03-24T09:56:02;98685.84;;;12.98;59.13
46430;BME280;32131;53.454;-6.180;2023-03-24T09:58:33;98673.97;;;12.90;59.13
46430;BME280;32131;53.454;-6.180;2023-03-24T10:01:01;98666.31;;;12.86;59.27
46430;BME280;32131;53.454;-6.180;2023-03-24T10:03:30;98665.25;;;12.62;58.64
46430;BME280;32131;53.454;-6.180;2023-03-24T10:06:04;98657.72;;;12.52;58.10
46430;BME280;32131;53.454;-6.180;2023-03-24T10:08:35;98659.84;;;12.71;58.41
46430;BME280;32131;53.454;-6.180;2023-03-24T10:11:07;98660.63;;;12.73;58.38
46430;BME280;32131;53.454;-6.180;2023-03-24T10:13:50;98660.22;;;12.55;57.10
46430;BME280;32131;53.454;-6.180;2023-03-24T10:16:27;98658.00;;;12.40;57.44
46430;BME280;32131;53.454;-6.180;2023-03-24T10:19:01;98660.53;;;12.43;56.86
46430;BME280;32131;53.454;-6.180;2023-03-24T10:21:34;98663.84;;;12.50;55.30
46430;BME280;32131;53.454;-6.180;2023-03-24T10:24:11;98655.19;;;12.49;54.95
46430;BME280;32131;53.454;-6.180;2023-03-24T10:26:48;98649.19;;;12.49;54.74
46430;BME280;32131;53.454;-6.180;2023-03-24T10:29:24;98665.31;;;12.58;54.52
46430;BME280;32131;53.454;-6.180;2023-03-24T10:31:58;98652.19;;;12.66;54.06
46430;BME280;32131;53.454;-6.180;2023-03-24T10:34:39;98673.66;;;12.70;53.98
46430;BME280;32131;53.454;-6.180;2023-03-24T10:37:09;98653.31;;;12.56;54.02
46430;BME280;32131;53.454;-6.180;2023-03-24T10:39:40;98650.25;;;12.41;54.16
46430;BME280;32131;53.454;-6.180;2023-03-24T10:42:16;98652.16;;;12.33;55.56
46430;BME280;32131;53.454;-6.180;2023-03-24T10:44:50;98652.13;;;12.35;55.34
46430;BME280;32131;53.454;-6.180;2023-03-24T10:47:23;98647.81;;;12.34;55.76
46430;BME280;32131;53.454;-6.180;2023-03-24T10:49:53;98644.94;;;12.46;55.51
46430;BME280;32131;53.454;-6.180;2023-03-24T10:52:23;98640.50;;;12.51;55.05
46430;BME280;32131;53.454;-6.180;2023-03-24T10:54:55;98640.41;;;12.54;55.18
46430;BME280;32131;53.454;-6.180;2023-03-24T10:57:25;98636.19;;;12.50;55.36
46430;BME280;32131;53.454;-6.180;2023-03-24T10:59:57;98634.94;;;12.65;55.42
46430;BME280;32131;53.454;-6.180;2023-03-24T11:02:29;98627.84;;;12.72;55.07
46430;BME280;32131;53.454;-6.180;2023-03-24T11:05:00;98630.66;;;12.64;55.39
46430;BME280;32131;53.454;-6.180;2023-03-24T11:07:32;98626.00;;;12.77;55.07
46430;BME280;32131;53.454;-6.180;2023-03-24T11:10:05;98639.47;;;12.90;55.21
46430;BME280;32131;53.454;-6.180;2023-03-24T11:12:35;98616.72;;;13.00;54.51
46430;BME280;32131;53.454;-6.180;2023-03-24T11:15:16;98620.09;;;13.03;54.41
46430;BME280;32131;53.454;-6.180;2023-03-24T11:17:54;98614.69;;;13.11;54.42
46430;BME280;32131;53.454;-6.180;2023-03-24T11:20:26;98626.78;;;13.11;54.49
46430;BME280;32131;53.454;-6.180;2023-03-24T11:22:58;98616.41;;;13.12;54.21
46430;BME280;32131;53.454;-6.180;2023-03-24T11:25:29;98605.59;;;13.28;53.65
46430;BME280;32131;53.454;-6.180;2023-03-24T11:28:02;98600.72;;;13.47;52.76
46430;BME280;32131;53.454;-6.180;2023-03-24T11:30:42;98597.13;;;14.06;52.03
46430;BME280;32131;53.454;-6.180;2023-03-24T11:33:18;98593.00;;;14.26;51.03
46430;BME280;32131;53.454;-6.180;2023-03-24T11:36:05;98607.16;;;13.90;51.40
46430;BME280;32131;53.454;-6.180;2023-03-24T11:38:37;98595.53;;;13.75;51.35
46430;BME280;32131;53.454;-6.180;2023-03-24T11:41:18;98585.59;;;14.15;51.37
46430;BME280;32131;53.454;-6.180;2023-03-24T11:43:48;98601.16;;;14.40;50.65
46430;BME280;32131;53.454;-6.180;2023-03-24T11:46:18;98596.97;;;14.11;50.99
46430;BME280;32131;53.454;-6.180;2023-03-24T11:48:52;98583.97;;;14.11;51.43
46430;BME280;32131;53.454;-6.180;2023-03-24T11:51:24;98583.66;;;14.22;51.63
46430;BME280;32131;53.454;-6.180;2023-03-24T11:53:55;98588.25;;;14.13;51.91
46430;BME280;32131;53.454;-6.180;2023-03-24T11:56:28;98581.38;;;14.11;51.32
46430;BME280;32131;53.454;-6.180;2023-03-24T11:59:02;98582.84;;;14.20;50.92
46430;BME280;32131;53.454;-6.180;2023-03-24T12:01:36;98561.94;;;13.72;51.08
46430;BME280;32131;53.454;-6.180;2023-03-24T12:04:30;98567.34;;;13.91;50.97
46430;BME280;32131;53.454;-6.180;2023-03-24T12:10:13;98547.94;;;14.28;48.13
46430;BME280;32131;53.454;-6.180;2023-03-24T12:12:51;98551.06;;;14.38;48.47
46430;BME280;32131;53.454;-6.180;2023-03-24T12:15:33;98549.66;;;14.53;48.65
46430;BME280;32131;53.454;-6.180;2023-03-24T12:18:17;98547.22;;;14.49;48.65
46430;BME280;32131;53.454;-6.180;2023-03-24T12:20:52;98528.78;;;14.56;48.70
46430;BME280;32131;53.454;-6.180;2023-03-24T12:23:30;98518.09;;;14.89;48.75
46430;BME280;32131;53.454;-6.180;2023-03-24T12:26:15;98520.09;;;15.05;49.03
46430;BME280;32131;53.454;-6.180;2023-03-24T12:28:56;98504.94;;;14.70;48.76
46430;BME280;32131;53.454;-6.180;2023-03-24T12:31:40;98519.56;;;14.73;49.53
46430;BME280;32131;53.454;-6.180;2023-03-24T12:37:24;98523.00;;;15.41;47.49
46430;BME280;32131;53.454;-6.180;2023-03-24T12:40:06;98509.41;;;15.57;47.81
46430;BME280;32131;53.454;-6.180;2023-03-24T12:42:43;98513.44;;;14.98;48.19
46430;BME280;32131;53.454;-6.180;2023-03-24T12:45:21;98503.97;;;14.97;48.30
46430;BME280;32131;53.454;-6.180;2023-03-24T12:48:07;98484.59;;;15.28;47.03
46430;BME280;32131;53.454;-6.180;2023-03-24T12:50:49;98502.03;;;15.24;44.81
46430;BME280;32131;53.454;-6.180;2023-03-24T12:53:37;98493.69;;;15.16;44.94
46430;BME280;32131;53.454;-6.180;2023-03-24T12:56:11;98483.78;;;15.03;45.37
46430;BME280;32131;53.454;-6.180;2023-03-24T12:58:43;98479.41;;;15.04;45.91
46430;BME280;32131;53.454;-6.180;2023-03-24T13:01:17;98481.72;;;15.12;46.28
46430;BME280;32131;53.454;-6.180;2023-03-24T13:03:50;98473.31;;;15.27;45.63
46430;BME280;32131;53.454;-6.180;2023-03-24T13:06:24;98492.50;;;15.47;45.16
46430;BME280;32131;53.454;-6.180;2023-03-24T13:09:03;98490.50;;;15.31;45.44
46430;BME280;32131;53.454;-6.180;2023-03-24T13:11:40;98489.53;;;15.12;45.84
46430;BME280;32131;53.454;-6.180;2023-03-24T13:14:14;98473.56;;;14.99;46.79
46430;BME280;32131;53.454;-6.180;2023-03-24T13:16:44;98464.06;;;14.98;46.72
46430;BME280;32131;53.454;-6.180;2023-03-24T13:19:18;98487.19;;;15.05;47.39
46430;BME280;32131;53.454;-6.180;2023-03-24T13:24:17;98461.66;;;14.93;47.40
46430;BME280;32131;53.454;-6.180;2023-03-24T13:26:52;98458.41;;;15.10;47.69
46430;BME280;32131;53.454;-6.180;2023-03-24T13:32:36;98463.75;;;15.50;46.10
46430;BME280;32131;53.454;-6.180;2023-03-24T13:35:14;98464.63;;;15.28;46.58
46430;BME280;32131;53.454;-6.180;2023-03-24T13:37:49;98470.78;;;15.03;47.73
46430;BME280;32131;53.454;-6.180;2023-03-24T13:40:21;98458.44;;;15.08;47.40
46430;BME280;32131;53.454;-6.180;2023-03-24T13:42:53;98444.19;;;15.19;46.58
46430;BME280;32131;53.454;-6.180;2023-03-24T13:45:25;98451.81;;;15.01;47.21
46430;BME280;32131;53.454;-6.180;2023-03-24T13:48:03;98471.50;;;14.85;48.67